createdAt,value
2023-04-24T00:04:28.855Z,42.80
2023-04-24T00:09:30.378Z,43.01
2023-04-24T00:14:32.323Z,42.82
2023-04-24T00:19:33.826Z,42.96
2023-04-24T00:24:35.200Z,43.17
2023-04-24T00:29:36.574Z,42.90
2023-04-24T00:34:37.959Z,43.09
2023-04-24T00:39:39.352Z,42.96
2023-04-24T00:44:40.726Z,43.03
2023-04-24T00:49:42.236Z,43.14
2023-04-24T00:54:44.022Z,42.97
2023-04-24T00:59:45.494Z,43.13
2023-04-24T01:04:46.895Z,43.14
2023-04-24T01:09:49.748Z,42.96
2023-04-24T01:14:51.118Z,43.33
2023-04-24T01:19:57.599Z,43.18
2023-04-24T01:24:59.014Z,43.19
2023-04-24T01:30:00.604Z,43.19
2023-04-24T01:35:02.238Z,43.34
2023-04-24T01:40:05.728Z,43.44
2023-04-24T01:45:07.629Z,43.25
2023-04-24T01:50:09.660Z,43.33
2023-04-24T01:55:11.138Z,43.15
2023-04-24T02:00:13.056Z,43.30
2023-04-24T02:05:14.470Z,43.57
2023-04-24T02:10:15.895Z,43.47
2023-04-24T02:15:17.982Z,43.48
2023-04-24T02:20:19.429Z,43.62
2023-04-24T02:25:20.941Z,43.61
2023-04-24T02:30:22.340Z,43.39
2023-04-24T02:35:23.786Z,43.33
2023-04-24T02:40:25.223Z,43.46
2023-04-24T02:45:26.599Z,43.53
2023-04-24T02:50:28.045Z,43.33
2023-04-24T02:55:29.495Z,43.31
2023-04-24T03:00:31.050Z,43.44
2023-04-24T03:05:32.432Z,43.31
2023-04-24T03:10:33.863Z,43.41
2023-04-24T03:15:35.568Z,43.60
2023-04-24T03:20:38.418Z,43.63
2023-04-24T03:25:39.861Z,43.48
2023-04-24T03:30:41.441Z,43.56
2023-04-24T03:35:42.914Z,43.41
2023-04-24T03:40:44.335Z,43.25
2023-04-24T03:45:45.716Z,43.45
2023-04-24T03:50:47.127Z,43.30
2023-04-24T03:55:48.551Z,42.88
2023-04-24T04:00:50.656Z,42.49
2023-04-24T04:05:52.058Z,42.57
2023-04-24T04:10:53.427Z,41.95
2023-04-24T04:15:54.818Z,41.71
2023-04-24T04:20:57.733Z,41.52
2023-04-24T04:25:59.203Z,41.24
2023-04-24T04:31:00.593Z,41.01
2023-04-24T04:36:03.420Z,40.68
2023-04-24T04:41:05.250Z,40.48
2023-04-24T04:46:07.007Z,40.00
2023-04-24T04:51:08.401Z,39.68
2023-04-24T04:56:09.852Z,39.42
2023-04-24T05:01:11.270Z,39.37
2023-04-24T05:06:12.677Z,39.36
2023-04-24T05:11:14.069Z,39.05
2023-04-24T05:16:15.529Z,38.97
2023-04-24T05:21:16.959Z,38.71
2023-04-24T05:26:18.799Z,38.96
2023-04-24T05:31:20.693Z,38.54
2023-04-24T05:36:22.094Z,38.49
2023-04-24T05:41:23.636Z,38.33
2023-04-24T05:46:25.054Z,37.97
2023-04-24T05:51:26.841Z,38.17
2023-04-24T05:56:28.290Z,37.88
2023-04-24T06:01:29.718Z,38.04
2023-04-24T06:06:31.368Z,37.75
2023-04-24T06:11:32.788Z,37.66
2023-04-24T06:16:34.237Z,37.94
2023-04-24T06:21:35.730Z,37.47
2023-04-24T06:26:37.134Z,37.58
2023-04-24T06:31:38.646Z,37.40
2023-04-24T06:36:40.070Z,37.08
2023-04-24T06:41:42.681Z,36.75
2023-04-24T06:46:44.273Z,36.63
2023-04-24T06:51:46.087Z,36.46
2023-04-24T06:56:48.718Z,36.32
2023-04-24T07:01:50.264Z,36.16
2023-04-24T07:06:52.238Z,35.99
2023-04-24T07:11:54.214Z,35.98
2023-04-24T07:16:55.621Z,35.92
2023-04-24T07:21:59.062Z,35.56
2023-04-24T07:27:01.920Z,35.94
2023-04-24T07:32:04.357Z,36.15
2023-04-24T07:37:06.063Z,35.92
2023-04-24T07:42:07.733Z,35.87
2023-04-24T07:47:09.114Z,35.67
2023-04-24T07:52:10.540Z,35.46
2023-04-24T07:57:11.953Z,35.26
2023-04-24T08:02:13.366Z,35.30
2023-04-24T08:07:15.171Z,35.68
2023-04-24T08:12:16.553Z,35.25
2023-04-24T08:17:18.250Z,35.05
2023-04-24T08:22:19.874Z,34.98
2023-04-24T08:27:21.248Z,34.71
2023-04-24T08:32:22.768Z,34.53
2023-04-24T08:37:24.491Z,34.58
2023-04-24T08:42:25.952Z,34.42
2023-04-24T08:47:27.705Z,34.06
2023-04-24T08:52:30.473Z,34.12
2023-04-24T08:57:31.925Z,34.00
2023-04-24T09:02:35.231Z,34.07
2023-04-24T09:07:37.365Z,33.48
2023-04-24T09:12:38.754Z,33.10
2023-04-24T09:17:40.293Z,32.87
2023-04-24T09:22:42.792Z,32.71
2023-04-24T09:27:47.203Z,32.89
2023-04-24T09:32:48.648Z,32.94
2023-04-24T09:37:50.256Z,32.84
2023-04-24T09:42:58.651Z,33.14
2023-04-24T09:48:00.361Z,33.44
2023-04-24T09:53:06.360Z,33.48
2023-04-24T09:58:08.711Z,33.23
2023-04-24T10:03:10.722Z,32.91
2023-04-24T10:08:12.328Z,33.27
2023-04-24T10:13:15.324Z,32.90
2023-04-24T10:18:16.922Z,33.09
2023-04-24T10:23:20.295Z,32.84
2023-04-24T10:28:21.898Z,32.66
2023-04-24T10:33:23.286Z,33.03
2023-04-24T10:38:26.169Z,32.94
2023-04-24T10:43:27.585Z,33.04
2023-04-24T10:48:28.961Z,33.17
2023-04-24T10:53:30.790Z,33.23
2023-04-24T10:58:48.974Z,33.33
2023-04-24T11:03:56.715Z,32.83
2023-04-24T11:09:06.878Z,32.98
2023-04-24T11:14:08.918Z,33.13
2023-04-24T11:19:20.118Z,33.33
2023-04-24T11:24:31.605Z,33.30
2023-04-24T11:29:58.159Z,33.54
2023-04-24T11:35:02.098Z,33.87
2023-04-24T11:40:04.498Z,33.63
2023-04-24T11:45:10.542Z,33.75
2023-04-24T11:50:13.520Z,33.80
2023-04-24T11:55:14.806Z,33.73
2023-04-24T12:00:17.699Z,33.80
2023-04-24T12:05:26.743Z,33.66
2023-04-24T12:10:29.559Z,34.00
2023-04-24T12:15:30.967Z,33.08
2023-04-24T12:20:32.932Z,32.49
2023-04-24T12:25:35.918Z,31.35
2023-04-24T12:30:49.197Z,31.03
2023-04-24T12:35:54.108Z,30.58
2023-04-24T12:41:11.563Z,30.22
2023-04-24T12:46:12.981Z,29.92
2023-04-24T12:51:14.420Z,29.77
2023-04-24T12:56:15.803Z,29.72
2023-04-24T13:01:17.233Z,29.59
2023-04-24T13:06:18.636Z,29.03
2023-04-24T13:11:20.152Z,28.92
2023-04-24T13:16:21.728Z,28.39
2023-04-24T13:21:23.147Z,28.96
2023-04-24T13:26:24.965Z,28.11
2023-04-24T13:31:26.337Z,28.09
2023-04-24T13:36:27.942Z,28.02
2023-04-24T13:41:29.358Z,27.28
2023-04-24T13:46:31.404Z,27.17
2023-04-24T13:51:33.105Z,27.11
2023-04-24T13:56:34.478Z,26.96
2023-04-24T14:01:35.952Z,27.21
2023-04-24T14:06:37.356Z,26.96
2023-04-24T14:11:38.908Z,26.87
2023-04-24T14:16:40.614Z,27.08
2023-04-24T14:21:42.115Z,27.24
2023-04-24T14:26:43.772Z,26.41
2023-04-24T14:31:45.622Z,26.89
2023-04-24T14:36:47.070Z,26.68
2023-04-24T14:41:48.463Z,26.90
2023-04-24T14:46:50.323Z,26.78
2023-04-24T14:51:51.748Z,26.99
2023-04-24T14:56:53.122Z,27.00
2023-04-24T15:02:14.611Z,27.32
2023-04-24T15:07:16.714Z,26.95
2023-04-24T15:12:18.238Z,27.15
2023-04-24T15:17:19.644Z,27.04
2023-04-24T15:22:21.376Z,26.86
2023-04-24T15:27:22.826Z,26.69
2023-04-24T15:32:24.292Z,26.91
2023-04-24T15:37:25.747Z,26.77
2023-04-24T15:42:27.505Z,26.84
2023-04-24T15:47:28.935Z,26.81
2023-04-24T15:52:30.503Z,26.98
2023-04-24T15:57:32.080Z,27.19
2023-04-24T16:02:33.832Z,27.25
2023-04-24T16:07:35.661Z,27.23
2023-04-24T16:12:37.054Z,27.47
2023-04-24T16:17:38.511Z,27.69
2023-04-24T16:22:39.969Z,27.96
2023-04-24T16:27:41.411Z,28.03
2023-04-24T16:32:42.812Z,27.91
2023-04-24T16:37:44.411Z,28.05
2023-04-24T16:42:45.790Z,28.18
2023-04-24T16:47:47.249Z,28.25
2023-04-24T16:52:48.641Z,28.64
2023-04-24T16:57:50.023Z,28.61
2023-04-24T17:02:51.529Z,28.55
2023-04-24T17:07:53.160Z,28.69
2023-04-24T17:12:54.551Z,28.99
2023-04-24T17:17:57.418Z,29.03
2023-04-24T17:22:58.797Z,29.11
2023-04-24T17:28:00.317Z,29.38
2023-04-24T17:33:01.722Z,29.49
2023-04-24T17:38:03.138Z,29.55
2023-04-24T17:43:04.660Z,29.81
2023-04-24T17:48:06.088Z,29.92
2023-04-24T17:53:07.558Z,29.96
2023-04-24T17:58:08.950Z,30.05
2023-04-24T18:03:10.583Z,30.25
2023-04-24T18:08:12.148Z,30.22
2023-04-24T18:13:13.532Z,30.25
2023-04-24T18:18:15.233Z,30.09
2023-04-24T18:23:16.607Z,29.93
2023-04-24T18:28:18.000Z,30.07
2023-04-24T18:33:19.412Z,29.67
2023-04-24T18:38:21.893Z,29.82
2023-04-24T18:43:23.275Z,29.90
2023-04-24T18:48:24.679Z,29.85
2023-04-24T18:53:26.072Z,29.49
2023-04-24T18:58:30.340Z,29.50
2023-04-24T19:03:32.409Z,29.45
2023-04-24T19:08:33.837Z,29.42
2023-04-24T19:13:35.733Z,29.18
2023-04-24T19:18:37.117Z,29.24
2023-04-24T19:23:40.791Z,29.42
2023-04-24T19:28:42.208Z,29.53
2023-04-24T19:33:43.587Z,29.48
2023-04-24T19:38:45.683Z,29.68
2023-04-24T19:43:50.444Z,29.55
2023-04-24T19:48:52.020Z,29.72
2023-04-24T19:53:53.565Z,29.77
2023-04-24T19:58:54.939Z,29.74
2023-04-24T20:03:56.588Z,29.71
2023-04-24T20:08:58.155Z,29.85
2023-04-24T20:14:01.342Z,30.01
2023-04-24T20:19:02.718Z,30.01
2023-04-24T20:24:05.597Z,30.21
2023-04-24T20:29:08.602Z,30.04
2023-04-24T20:34:09.972Z,29.95
2023-04-24T20:39:11.683Z,30.12
2023-04-24T20:44:13.071Z,30.18
2023-04-24T20:49:14.453Z,30.17
2023-04-24T20:54:15.861Z,30.15
2023-04-24T20:59:17.253Z,30.14
2023-04-24T21:04:18.667Z,30.07
2023-04-24T21:09:20.169Z,29.99
2023-04-24T21:14:21.562Z,30.03
2023-04-24T21:19:23.073Z,29.97
2023-04-24T21:24:24.602Z,30.09
2023-04-24T21:29:26.189Z,29.83
2023-04-24T21:34:27.565Z,30.17
2023-04-24T21:39:28.935Z,29.87
2023-04-24T21:44:30.348Z,30.08
2023-04-24T21:49:31.732Z,30.10
2023-04-24T21:54:33.115Z,30.03
2023-04-24T21:59:34.541Z,29.89
2023-04-24T22:04:36.193Z,30.02
2023-04-24T22:09:37.610Z,30.03
2023-04-24T22:14:38.979Z,30.07
2023-04-24T22:19:41.754Z,30.13
2023-04-24T22:24:43.144Z,30.12
2023-04-24T22:29:44.542Z,30.43
2023-04-24T22:34:45.939Z,30.35
2023-04-24T22:39:49.455Z,30.34
2023-04-24T22:44:51.168Z,30.35
2023-04-24T22:49:57.351Z,30.24
2023-04-24T22:54:58.734Z,30.20
2023-04-24T23:00:00.149Z,30.44
2023-04-24T23:05:01.558Z,30.21
2023-04-24T23:10:03.531Z,30.21
2023-04-24T23:15:05.736Z,30.25
2023-04-24T23:20:07.774Z,30.46
2023-04-24T23:25:10.653Z,30.28
2023-04-24T23:30:12.246Z,30.39
2023-04-24T23:35:13.657Z,30.38
2023-04-24T23:40:15.180Z,30.54
2023-04-24T23:45:16.558Z,30.62
2023-04-24T23:50:17.934Z,30.74
2023-04-24T23:55:19.338Z,30.72
